Time;durP1;ratioP1;P1;durP2;ratioP2;P2;SDS_P1;SDS_P2;PMS_P1;PMS_P2;Temp;Humidity;BMP_temperature;BMP_pressure;BME280_temperature;BME280_humidity;BME280_pressure;Samples;Min_cycle;Max_cycle;Signal;HPM_P1;HPM_P2
2023/08/20 00:00:14;;;;;;;1999.90;999.90;;;14.20;99.90;;;;;;5083261;28;20036;-70
2023/08/20 00:02:45;;;;;;;1999.90;999.90;;;14.10;99.90;;;;;;5087375;28;20040;-70
2023/08/20 00:05:11;;;;;;;1999.90;999.90;;;14.10;99.90;;;;;;5085370;28;20063;-70
2023/08/20 00:07:38;;;;;;;1999.90;999.90;;;14.10;99.90;;;;;;5092264;28;20422;-70
2023/08/20 00:10:04;;;;;;;1999.90;999.90;;;14.10;99.90;;;;;;5090816;28;20039;-70
2023/08/20 00:12:30;;;;;;;1999.90;999.90;;;14.10;99.90;;;;;;5085663;28;20040;-70
2023/08/20 00:15:06;;;;;;;1999.90;999.90;;;14.10;99.90;;;;;;5084584;28;20044;-70
2023/08/20 00:17:33;;;;;;;1999.90;999.90;;;14.10;99.90;;;;;;5096248;28;20047;-71
2023/08/20 00:19:59;;;;;;;1999.90;999.90;;;14.20;99.90;;;;;;5088050;28;20032;-71
2023/08/20 00:22:25;;;;;;;1999.90;999.90;;;14.10;99.90;;;;;;5086493;28;20040;-70
2023/08/20 00:24:53;;;;;;;1999.90;999.90;;;14.10;99.90;;;;;;5069518;28;20032;-71
2023/08/20 00:27:19;;;;;;;1999.90;999.90;;;14.10;99.90;;;;;;5086254;28;20126;-71
2023/08/20 00:29:44;;;;;;;1999.90;999.90;;;14.10;99.90;;;;;;5103532;28;20114;-70
2023/08/20 00:32:10;;;;;;;1999.90;999.90;;;14.10;99.90;;;;;;5081989;28;20032;-70
2023/08/20 00:34:36;;;;;;;1999.90;999.90;;;14.10;99.90;;;;;;5087921;28;20177;-70
2023/08/20 00:37:02;;;;;;;1999.90;999.90;;;14.10;99.90;;;;;;5086042;28;20047;-70
2023/08/20 00:39:31;;;;;;;1999.90;999.90;;;14.00;99.90;;;;;;5085758;28;20036;-70
2023/08/20 00:41:57;;;;;;;1999.90;999.90;;;14.00;99.90;;;;;;5085411;28;20476;-70
2023/08/20 00:44:23;;;;;;;1999.90;999.90;;;13.90;99.90;;;;;;5082224;28;20044;-70
2023/08/20 00:46:50;;;;;;;1999.90;999.90;;;13.90;99.90;;;;;;5100584;28;20039;-70
2023/08/20 00:49:16;;;;;;;1999.90;999.90;;;13.80;99.90;;;;;;5081759;28;20039;-70
2023/08/20 00:51:42;;;;;;;1999.90;999.90;;;13.80;99.90;;;;;;5068375;28;20046;-70
2023/08/20 00:54:09;;;;;;;1999.90;999.90;;;13.70;99.90;;;;;;5069846;28;20048;-70
2023/08/20 00:56:35;;;;;;;1999.90;999.90;;;13.70;99.90;;;;;;5083645;28;20047;-70
2023/08/20 00:59:00;;;;;;;1999.90;999.90;;;13.70;99.90;;;;;;5086968;28;20500;-70
2023/08/20 01:01:26;;;;;;;1999.90;999.90;;;13.70;99.90;;;;;;5086560;28;20044;-70
2023/08/20 01:03:52;;;;;;;1999.90;999.90;;;13.80;99.90;;;;;;5066840;28;20060;-70
2023/08/20 01:06:30;;;;;;;1999.90;999.90;;;13.80;99.90;;;;;;5087809;28;20125;-70
2023/08/20 01:09:05;;;;;;;1999.90;999.90;;;13.80;99.90;;;;;;5085870;28;20040;-70
2023/08/20 01:11:41;;;;;;;1999.90;999.90;;;13.80;99.90;;;;;;5086243;28;20508;-70
2023/08/20 01:14:17;;;;;;;1999.90;999.90;;;13.70;99.90;;;;;;5083468;28;20504;-70
2023/08/20 01:16:43;;;;;;;1999.90;999.90;;;13.70;99.90;;;;;;5085385;28;20081;-70
2023/08/20 01:19:13;;;;;;;1999.90;999.90;;;13.60;99.90;;;;;;5071058;28;20044;-70
2023/08/20 01:21:44;;;;;;;1999.90;999.90;;;13.70;99.90;;;;;;5090292;28;20040;-70
2023/08/20 01:24:40;;;;;;;1999.90;999.90;;;13.60;99.90;;;;;;5085795;28;20073;-70
2023/08/20 01:27:44;;;;;;;1999.90;999.90;;;13.70;99.90;;;;;;5081880;28;20143;-70
2023/08/20 01:30:11;;;;;;;1999.90;999.90;;;13.60;99.90;;;;;;5027196;28;20052;-70
2023/08/20 01:32:41;;;;;;;1999.90;999.90;;;13.70;99.90;;;;;;5084144;28;20083;-70
2023/08/20 01:35:16;;;;;;;1999.90;999.90;;;13.60;99.90;;;;;;5080671;28;20044;-71
2023/08/20 01:37:42;;;;;;;1999.90;999.90;;;13.60;99.90;;;;;;5080705;28;20043;-70
2023/08/20 01:40:10;;;;;;;1999.90;999.90;;;13.60;99.90;;;;;;5086396;28;20048;-70
2023/08/20 01:42:37;;;;;;;1999.90;999.90;;;13.60;99.90;;;;;;5082989;28;20039;-70
2023/08/20 01:45:03;;;;;;;1999.90;999.90;;;13.60;99.90;;;;;;5083727;28;20036;-70
2023/08/20 01:47:28;;;;;;;1999.90;999.90;;;13.70;99.90;;;;;;5084530;28;20043;-70
2023/08/20 01:49:54;;;;;;;1999.90;999.90;;;13.60;99.90;;;;;;5079716;28;20037;-70
2023/08/20 01:52:19;;;;;;;1999.90;999.90;;;13.70;99.90;;;;;;5085311;28;20063;-70
2023/08/20 01:54:45;;;;;;;1999.90;999.90;;;13.60;99.90;;;;;;5077558;28;20039;-70
2023/08/20 01:57:11;;;;;;;1999.90;999.90;;;13.60;99.90;;;;;;5073995;28;20106;-70
2023/08/20 01:59:36;;;;;;;1999.90;999.90;;;13.50;99.90;;;;;;5058356;28;20044;-70
2023/08/20 02:02:04;;;;;;;1999.90;999.90;;;13.50;99.90;;;;;;5078027;28;20127;-70
2023/08/20 02:04:29;;;;;;;1999.90;999.90;;;13.50;99.90;;;;;;5086619;28;20055;-70
2023/08/20 02:06:55;;;;;;;1999.90;999.90;;;13.40;99.90;;;;;;5085118;28;20072;-70
2023/08/20 02:09:21;;;;;;;1999.90;999.90;;;13.40;99.90;;;;;;5061962;28;20048;-70
2023/08/20 02:11:46;;;;;;;1999.90;999.90;;;13.40;99.90;;;;;;5085607;28;20043;-70
2023/08/20 02:14:12;;;;;;;1999.90;999.90;;;13.40;99.90;;;;;;5076680;28;20047;-70
2023/08/20 02:16:37;;;;;;;1999.90;999.90;;;13.40;99.90;;;;;;5067235;28;20036;-70
2023/08/20 02:19:05;;;;;;;1999.90;999.90;;;13.40;99.90;;;;;;5086856;28;20381;-70
2023/08/20 02:21:31;;;;;;;1999.90;999.90;;;13.40;99.90;;;;;;5100972;28;20052;-70
2023/08/20 02:23:56;;;;;;;1999.90;999.90;;;13.60;99.90;;;;;;5087816;28;20420;-70
2023/08/20 02:26:22;;;;;;;1999.90;999.90;;;13.60;99.90;;;;;;5092386;28;20039;-70
2023/08/20 02:28:47;;;;;;;1999.90;999.90;;;13.70;99.90;;;;;;5105874;28;20036;-70
2023/08/20 02:31:13;;;;;;;1999.90;999.90;;;13.60;99.90;;;;;;5093340;28;20048;-69
2023/08/20 02:33:39;;;;;;;1999.90;999.90;;;13.60;99.90;;;;;;5096140;28;20678;-70
2023/08/20 02:36:04;;;;;;;1999.90;999.90;;;13.50;99.90;;;;;;5088709;28;20123;-70
2023/08/20 02:38:30;;;;;;;1999.90;999.90;;;13.50;99.90;;;;;;5097400;28;20467;-70
2023/08/20 02:40:56;;;;;;;1999.90;999.90;;;13.50;99.90;;;;;;5088336;28;20105;-70
2023/08/20 02:43:22;;;;;;;1999.90;999.90;;;13.50;99.90;;;;;;5102175;28;20032;-70
2023/08/20 02:45:47;;;;;;;1999.90;999.90;;;13.50;99.90;;;;;;5088531;28;20047;-72
2023/08/20 02:48:14;;;;;;;1999.90;999.90;;;13.50;99.90;;;;;;5088918;28;20119;-70
2023/08/20 02:50:40;;;;;;;1999.90;999.90;;;13.50;99.90;;;;;;5088549;28;20119;-70
2023/08/20 02:53:05;;;;;;;1999.90;999.90;;;13.50;99.90;;;;;;5069928;28;20540;-69
2023/08/20 02:55:32;;;;;;;1999.90;999.90;;;13.60;99.90;;;;;;5073227;28;20055;-70
2023/08/20 02:57:58;;;;;;;1999.90;999.90;;;13.60;99.90;;;;;;5072147;28;20106;-69
2023/08/20 03:00:24;;;;;;;1999.90;999.90;;;13.60;99.90;;;;;;5088900;28;20082;-70
2023/08/20 03:02:49;;;;;;;1999.90;999.90;;;13.70;99.90;;;;;;5094012;28;20461;-70
2023/08/20 03:05:15;;;;;;;1999.90;999.90;;;13.70;99.90;;;;;;5099834;28;20511;-70
2023/08/20 03:07:40;;;;;;;1999.90;999.90;;;13.70;99.90;;;;;;5105231;28;20048;-70
2023/08/20 03:10:07;;;;;;;1999.90;999.90;;;13.70;99.90;;;;;;5088382;28;20055;-70
2023/08/20 03:12:32;;;;;;;1999.90;999.90;;;13.70;99.90;;;;;;5069065;28;20039;-70
2023/08/20 03:14:59;;;;;;;1999.90;999.90;;;13.60;99.90;;;;;;5099209;28;20040;-70
2023/08/20 03:17:25;;;;;;;1999.90;999.90;;;13.70;99.90;;;;;;5075320;28;20036;-70
2023/08/20 03:19:59;;;;;;;1999.90;999.90;;;13.70;99.90;;;;;;5088707;28;20108;-70
2023/08/20 03:22:25;;;;;;;;;;;13.70;99.90;;;;;;5092600;28;20036;-70
2023/08/20 03:24:51;;;;;;;1999.90;999.90;;;13.70;99.90;;;;;;5086168;28;19927;-70
2023/08/20 03:27:17;;;;;;;1999.90;999.90;;;13.70;99.90;;;;;;5071687;28;20083;-70
2023/08/20 03:29:44;;;;;;;1999.90;999.90;;;13.70;99.90;;;;;;5072161;28;20445;-70
2023/08/20 03:32:09;;;;;;;1999.90;999.90;;;13.70;99.90;;;;;;5070150;28;20051;-70
2023/08/20 03:34:35;;;;;;;1999.90;999.90;;;13.70;99.90;;;;;;5087447;28;20586;-70
2023/08/20 03:37:01;;;;;;;1999.90;999.90;;;13.70;99.90;;;;;;5085765;28;20044;-70
2023/08/20 03:39:27;;;;;;;1999.90;999.90;;;13.70;99.90;;;;;;5070488;28;20071;-70
2023/08/20 03:41:53;;;;;;;1999.90;999.90;;;13.80;99.90;;;;;;5105102;28;20102;-70
2023/08/20 03:44:19;;;;;;;1999.90;999.90;;;13.80;99.90;;;;;;5087052;28;20036;-70
2023/08/20 03:46:44;;;;;;;1999.90;999.90;;;13.80;99.90;;;;;;5084527;28;20034;-70
2023/08/20 03:49:10;;;;;;;1999.90;999.90;;;13.80;99.90;;;;;;5085622;28;20048;-70
2023/08/20 03:51:36;;;;;;;1999.90;999.90;;;13.70;99.90;;;;;;5071882;28;20775;-70
2023/08/20 03:54:02;;;;;;;1999.90;999.90;;;13.70;99.90;;;;;;5086689;28;20036;-70
2023/08/20 03:56:28;;;;;;;1999.90;999.90;;;13.70;99.90;;;;;;5083461;28;20040;-70
2023/08/20 03:58:54;;;;;;;1999.90;999.90;;;13.70;99.90;;;;;;5104187;28;20124;-70
2023/08/20 04:01:20;;;;;;;1999.90;999.90;;;13.60;99.90;;;;;;5084353;28;20043;-70
2023/08/20 04:03:46;;;;;;;1999.90;999.90;;;13.60;99.90;;;;;;5087892;28;20064;-71
2023/08/20 04:06:12;;;;;;;1999.90;999.90;;;13.60;99.90;;;;;;5087558;28;20056;-70
2023/08/20 04:08:38;;;;;;;1999.90;999.90;;;13.50;99.90;;;;;;5074267;28;20044;-70
2023/08/20 04:11:04;;;;;;;1999.90;999.90;;;13.50;99.90;;;;;;5069926;28;20758;-70
2023/08/20 04:13:30;;;;;;;1999.90;999.90;;;13.50;99.90;;;;;;5070722;28;20044;-70
2023/08/20 04:15:56;;;;;;;1999.90;999.90;;;13.40;99.90;;;;;;5086160;28;20123;-70
2023/08/20 04:18:22;;;;;;;1999.90;999.90;;;13.40;99.90;;;;;;5087397;28;20040;-70
2023/08/20 04:20:49;;;;;;;1999.90;999.90;;;13.40;99.90;;;;;;5085792;28;20035;-70
2023/08/20 04:23:15;;;;;;;1999.90;999.90;;;13.40;99.90;;;;;;5088379;28;20047;-70
2023/08/20 04:25:41;;;;;;;1999.90;999.90;;;13.40;99.90;;;;;;5085394;28;20039;-70
2023/08/20 04:28:06;;;;;;;1999.90;999.90;;;13.40;99.90;;;;;;5069754;28;20765;-70
2023/08/20 04:30:34;;;;;;;1999.90;999.90;;;13.40;99.90;;;;;;5103013;28;20496;-70
2023/08/20 04:32:59;;;;;;;1999.90;999.90;;;13.40;99.90;;;;;;5074600;28;20048;-70
2023/08/20 04:35:25;;;;;;;1999.90;999.90;;;13.30;99.90;;;;;;5068079;28;20051;-70
2023/08/20 04:37:50;;;;;;;1999.90;999.90;;;13.40;99.90;;;;;;5085805;28;20492;-70
2023/08/20 04:40:16;;;;;;;1999.90;999.90;;;13.30;99.90;;;;;;5081820;28;20070;-70
2023/08/20 04:42:42;;;;;;;1999.90;999.90;;;13.30;99.90;;;;;;5099436;28;20174;-70
2023/08/20 04:45:08;;;;;;;1999.90;999.90;;;13.40;99.90;;;;;;5086634;28;20040;-70
2023/08/20 04:47:34;;;;;;;1999.90;999.90;;;13.40;99.90;;;;;;5080526;28;20032;-70
2023/08/20 04:49:59;;;;;;;1999.90;999.90;;;13.40;99.90;;;;;;5084349;28;20144;-70
2023/08/20 04:52:25;;;;;;;1999.90;999.90;;;13.50;99.90;;;;;;5086304;28;20415;-70
2023/08/20 04:54:50;;;;;;;1999.90;999.90;;;13.40;99.90;;;;;;5103073;28;20035;-70
2023/08/20 04:57:16;;;;;;;1999.90;999.90;;;13.50;99.90;;;;;;5070704;28;20048;-70
2023/08/20 04:59:45;;;;;;;1999.90;999.90;;;13.50;99.90;;;;;;5077350;28;20040;-70
2023/08/20 05:02:11;;;;;;;1999.90;999.90;;;13.50;99.90;;;;;;5086685;28;20051;-70
2023/08/20 05:04:37;;;;;;;1999.90;999.90;;;13.50;99.90;;;;;;5077044;28;20113;-70
2023/08/20 05:07:03;;;;;;;1999.90;999.90;;;13.60;99.90;;;;;;5065176;28;20051;-70
2023/08/20 05:09:29;;;;;;;1999.90;999.90;;;13.60;99.90;;;;;;5086773;28;20043;-70
2023/08/20 05:11:54;;;;;;;1999.90;999.90;;;13.60;99.90;;;;;;5078323;28;20040;-70
2023/08/20 05:14:20;;;;;;;1999.90;999.90;;;13.70;99.90;;;;;;5086784;28;20040;-70
2023/08/20 05:16:45;;;;;;;1999.90;999.90;;;13.80;99.90;;;;;;5085734;28;20552;-70
2023/08/20 05:19:11;;;;;;;1999.90;999.90;;;13.80;99.90;;;;;;5084311;28;20056;-70
2023/08/20 05:21:37;;;;;;;1999.90;999.90;;;13.90;99.90;;;;;;5068548;28;20046;-71
2023/08/20 05:24:03;;;;;;;1999.90;999.90;;;13.90;99.90;;;;;;5069549;28;20043;-70
2023/08/20 05:26:29;;;;;;;1999.90;999.90;;;14.00;99.90;;;;;;5094095;28;20445;-70
2023/08/20 05:28:54;;;;;;;1999.90;999.90;;;14.00;99.90;;;;;;5085867;28;20040;-70
2023/08/20 05:31:20;;;;;;;1999.90;999.90;;;14.10;99.90;;;;;;5086226;28;20044;-70
2023/08/20 05:33:46;;;;;;;1999.90;999.90;;;14.10;99.90;;;;;;5079686;28;20392;-70
2023/08/20 05:36:12;;;;;;;1999.90;999.90;;;14.20;99.90;;;;;;5085853;28;20040;-70
2023/08/20 05:38:37;;;;;;;1999.90;999.90;;;14.30;99.90;;;;;;5068739;28;20131;-70
2023/08/20 05:41:03;;;;;;;1999.90;999.90;;;14.50;99.90;;;;;;5080460;28;20039;-70
2023/08/20 05:43:28;;;;;;;1999.90;999.90;;;14.80;99.90;;;;;;5084845;28;20040;-70
2023/08/20 05:45:54;;;;;;;1999.90;999.90;;;14.80;99.90;;;;;;5086161;28;20388;-70
2023/08/20 05:48:20;;;;;;;1999.90;999.90;;;14.90;99.90;;;;;;5084583;28;20127;-70
2023/08/20 05:50:45;;;;;;;1999.90;999.90;;;15.00;99.90;;;;;;5098999;28;20492;-70
2023/08/20 05:53:11;;;;;;;1999.90;999.90;;;15.00;99.90;;;;;;5102644;28;20036;-70
2023/08/20 05:55:39;;;;;;;1999.90;999.90;;;15.10;99.90;;;;;;5069350;28;20047;-70
2023/08/20 05:58:04;;;;;;;1999.90;999.90;;;15.20;99.90;;;;;;5082793;28;20131;-70
2023/08/20 06:00:30;;;;;;;1999.90;999.90;;;15.30;99.90;;;;;;5089556;28;20122;-70
2023/08/20 06:02:56;;;;;;;1999.90;999.90;;;15.40;99.90;;;;;;5089627;28;20032;-70
2023/08/20 06:05:21;;;;;;;1999.90;999.90;;;15.50;99.90;;;;;;5080705;28;20606;-71
2023/08/20 06:07:47;;;;;;;1999.90;999.90;;;15.50;99.90;;;;;;5091122;28;20089;-71
2023/08/20 06:10:12;;;;;;;1999.90;999.90;;;15.60;99.90;;;;;;5089069;28;20463;-71
2023/08/20 06:12:38;;;;;;;1999.90;999.90;;;15.80;99.90;;;;;;5089016;28;20047;-71
2023/08/20 06:15:04;;;;;;;1999.90;999.90;;;15.90;99.90;;;;;;5068096;28;20094;-70
2023/08/20 06:17:30;;;;;;;1999.90;999.90;;;16.00;99.90;;;;;;5082935;28;20043;-71
2023/08/20 06:19:56;;;;;;;1999.90;999.90;;;16.00;99.90;;;;;;5105913;28;20043;-71
2023/08/20 06:22:21;;;;;;;1999.90;999.90;;;16.20;99.90;;;;;;5087720;28;20032;-71
2023/08/20 06:24:47;;;;;;;1999.90;999.90;;;16.30;99.90;;;;;;5089730;28;20031;-71
2023/08/20 06:27:12;;;;;;;1999.90;999.90;;;16.30;99.90;;;;;;5089160;28;20094;-71
2023/08/20 06:29:38;;;;;;;1999.90;999.90;;;16.40;99.90;;;;;;5080546;28;20047;-71
2023/08/20 06:32:04;;;;;;;1999.90;999.90;;;16.40;99.90;;;;;;5089400;28;20043;-71
2023/08/20 06:34:30;;;;;;;1999.90;999.90;;;16.50;99.90;;;;;;5073035;28;20055;-71
2023/08/20 06:36:55;;;;;;;1999.90;999.90;;;16.60;99.90;;;;;;5077411;28;20056;-71
2023/08/20 06:39:21;;;;;;;1999.90;999.90;;;16.70;99.90;;;;;;5085944;28;20063;-71
2023/08/20 06:41:47;;;;;;;1999.90;999.90;;;16.80;99.90;;;;;;5088040;28;20139;-71
2023/08/20 06:44:12;;;;;;;1999.90;999.90;;;16.90;99.90;;;;;;5087282;28;20039;-71
2023/08/20 06:46:38;;;;;;;1999.90;999.90;;;16.90;99.90;;;;;;5099013;28;20123;-71
2023/08/20 06:49:04;;;;;;;1999.90;999.90;;;17.00;99.90;;;;;;5088149;28;20491;-71
2023/08/20 06:51:29;;;;;;;1999.90;999.90;;;17.20;99.90;;;;;;5088757;28;20036;-71
2023/08/20 06:53:56;;;;;;;1999.90;999.90;;;17.30;99.90;;;;;;5075009;28;20058;-71
2023/08/20 06:56:22;;;;;;;1999.90;999.90;;;17.40;99.90;;;;;;5088575;28;21017;-71
2023/08/20 06:58:47;;;;;;;1999.90;999.90;;;17.60;99.90;;;;;;5078579;28;20036;-71
2023/08/20 07:01:13;;;;;;;1999.90;999.90;;;18.00;99.90;;;;;;5088011;28;20062;-71
2023/08/20 07:03:43;;;;;;;1999.90;999.90;;;18.30;99.90;;;;;;5089377;28;20040;-71
2023/08/20 07:06:10;;;;;;;1999.90;999.90;;;18.50;99.90;;;;;;5083056;28;20043;-71
2023/08/20 07:08:38;;;;;;;1999.90;999.90;;;18.50;99.90;;;;;;5085789;28;20040;-71
2023/08/20 07:11:05;;;;;;;1999.90;999.90;;;18.50;99.90;;;;;;5088530;28;20166;-71
2023/08/20 07:13:31;;;;;;;1999.90;999.90;;;18.50;99.90;;;;;;5069708;28;20048;-71
2023/08/20 07:15:57;;;;;;;1999.90;999.90;;;18.50;99.90;;;;;;5100889;28;20127;-71
2023/08/20 07:18:22;;;;;;;1999.90;999.90;;;18.60;99.90;;;;;;5105862;27;20064;-71
2023/08/20 07:20:49;;;;;;;1999.90;999.90;;;18.70;99.90;;;;;;5102835;28;20040;-71
2023/08/20 07:23:15;;;;;;;1999.90;999.90;;;18.80;99.90;;;;;;5085495;28;20035;-71
2023/08/20 07:25:41;;;;;;;1999.90;999.90;;;18.90;99.90;;;;;;5087918;28;20146;-71
2023/08/20 07:28:10;;;;;;;1999.90;999.90;;;18.90;99.90;;;;;;5095161;28;20048;-71
2023/08/20 07:30:35;;;;;;;1999.90;999.90;;;19.00;99.90;;;;;;5093526;27;20412;-71
2023/08/20 07:33:02;;;;;;;1999.90;999.90;;;19.10;99.90;;;;;;5086804;28;20040;-70
2023/08/20 07:35:28;;;;;;;1999.90;999.90;;;19.20;99.90;;;;;;5087668;28;20399;-71
2023/08/20 07:37:53;;;;;;;1999.90;999.90;;;19.30;99.90;;;;;;5088573;28;20051;-71
2023/08/20 07:40:19;;;;;;;1999.90;999.90;;;19.30;99.90;;;;;;5103125;28;20036;-71
2023/08/20 07:42:45;;;;;;;1999.90;999.90;;;19.40;99.90;;;;;;5082421;28;20032;-71
2023/08/20 07:45:11;;;;;;;1999.90;999.90;;;19.50;99.90;;;;;;5087082;28;20036;-71
2023/08/20 07:47:37;;;;;;;1999.90;999.90;;;19.50;99.90;;;;;;5069315;28;20047;-71
2023/08/20 07:50:04;;;;;;;1999.90;999.90;;;19.60;99.90;;;;;;5084405;28;20047;-71
2023/08/20 07:52:33;;;;;;;1999.90;999.90;;;19.60;99.90;;;;;;5088202;28;20047;-71
2023/08/20 07:54:59;;;;;;;1999.90;999.90;;;19.70;99.90;;;;;;5066388;28;20048;-71
2023/08/20 07:57:24;;;;;;;1999.90;999.90;;;19.80;99.90;;;;;;5083258;28;20503;-71
2023/08/20 07:59:50;;;;;;;1999.90;999.90;;;19.90;99.90;;;;;;5111276;27;20044;-71
2023/08/20 08:02:16;;;;;;;1999.90;999.90;;;20.00;99.90;;;;;;5062445;28;20502;-71
2023/08/20 08:04:42;;;;;;;1999.90;999.90;;;20.10;99.90;;;;;;5103536;28;20079;-71
2023/08/20 08:07:08;;;;;;;1999.90;999.90;;;20.10;99.90;;;;;;5080263;28;20036;-72
2023/08/20 08:09:34;;;;;;;1999.90;999.90;;;20.10;99.90;;;;;;5083919;28;20043;-71
2023/08/20 08:12:00;;;;;;;1999.90;999.90;;;20.20;99.90;;;;;;5067454;28;20105;-71
2023/08/20 08:14:26;;;;;;;1999.90;999.90;;;20.20;99.90;;;;;;5083794;28;20409;-71
2023/08/20 08:16:52;;;;;;;1999.90;999.90;;;20.30;99.90;;;;;;5082480;28;20054;-71
2023/08/20 08:19:18;;;;;;;1999.90;999.90;;;20.30;99.90;;;;;;5097358;28;20040;-71
2023/08/20 08:21:44;;;;;;;1999.90;999.90;;;20.40;99.90;;;;;;5065228;28;20043;-71
2023/08/20 08:24:10;;;;;;;1999.90;999.90;;;20.50;99.90;;;;;;5079325;28;20044;-71
2023/08/20 08:26:36;;;;;;;1999.90;999.90;;;20.50;99.90;;;;;;5084498;28;20051;-71
2023/08/20 08:29:06;;;;;;;1999.90;999.90;;;20.70;99.90;;;;;;5086880;28;20039;-71
2023/08/20 08:31:32;;;;;;;1999.90;999.90;;;20.70;99.90;;;;;;5088854;28;20044;-71
2023/08/20 08:33:57;;;;;;;1999.90;999.90;;;20.70;99.90;;;;;;5081574;28;20040;-71
2023/08/20 08:36:24;;;;;;;1999.90;999.90;;;20.80;99.90;;;;;;5083691;28;20048;-71
2023/08/20 08:38:51;;;;;;;1536.80;785.13;;;20.90;99.90;;;;;;5082129;28;20044;-72
2023/08/20 08:41:17;;;;;;;158.30;150.77;;;21.00;99.90;;;;;;5071465;28;20741;-72
2023/08/20 08:43:42;;;;;;;125.53;119.45;;;21.10;99.90;;;;;;5079804;28;20044;-70
2023/08/20 08:46:17;;;;;;;173.57;165.52;;;21.20;99.90;;;;;;5070785;28;20040;-70
2023/08/20 08:48:45;;;;;;;200.50;191.38;;;21.20;99.90;;;;;;5087425;28;20031;-71
2023/08/20 08:51:12;;;;;;;182.65;174.30;;;21.40;99.90;;;;;;5082247;28;20055;-71
2023/08/20 08:53:38;;;;;;;244.88;234.02;;;21.60;99.90;;;;;;5088555;28;20687;-71
2023/08/20 08:56:05;;;;;;;201.07;192.00;;;21.90;99.90;;;;;;5089073;28;20555;-71
2023/08/20 08:58:32;;;;;;;212.88;203.10;;;22.30;99.90;;;;;;5086248;28;20059;-71
2023/08/20 09:00:58;;;;;;;284.27;271.45;;;22.80;99.90;;;;;;5087686;28;20050;-71
2023/08/20 09:03:24;;;;;;;179.30;171.23;;;23.30;99.90;;;;;;5091925;28;20035;-71
2023/08/20 09:06:05;;;;;;;198.82;189.95;;;24.10;99.90;;;;;;5076639;28;20393;-71
2023/08/20 09:08:32;;;;;;;321.98;307.23;;;24.80;99.90;;;;;;5070230;28;20051;-71
2023/08/20 09:11:00;;;;;;;381.02;362.50;;;25.40;99.90;;;;;;5086922;28;20120;-71
2023/08/20 09:13:40;;;;;;;309.27;295.02;;;25.80;99.90;;;;;;5072367;28;20403;-72
2023/08/20 09:16:10;;;;;;;282.90;270.20;;;26.40;99.90;;;;;;5084282;28;20047;-72
2023/08/20 09:18:40;;;;;;;273.75;261.52;;;26.80;99.90;;;;;;5069708;28;20079;-71
2023/08/20 09:21:13;;;;;;;310.77;296.65;;;26.90;99.90;;;;;;5075887;28;20049;-72
2023/08/20 09:23:39;;;;;;;261.13;249.40;;;26.80;99.90;;;;;;5087520;28;20043;-72
2023/08/20 09:26:06;;;;;;;243.85;232.90;;;26.90;99.90;;;;;;5071293;28;20492;-71
2023/08/20 09:28:42;;;;;;;328.17;312.65;;;26.90;99.90;;;;;;5081811;28;20127;-71
2023/08/20 09:31:08;;;;;;;68.45;65.35;;;27.00;99.90;;;;;;5069680;28;20087;-71
2023/08/20 09:33:34;;;;;;;70.85;67.25;;;27.00;99.90;;;;;;5087524;28;20463;-71
2023/08/20 09:35:59;;;;;;;58.45;55.45;;;26.80;99.90;;;;;;5099576;28;20051;-72
2023/08/20 09:38:25;;;;;;;337.83;322.00;;;26.60;99.90;;;;;;5086532;28;20039;-72
2023/08/20 09:40:53;;;;;;;183.05;174.30;;;26.40;99.90;;;;;;5088922;28;20064;-71
2023/08/20 09:43:19;;;;;;;195.55;186.75;;;26.20;99.90;;;;;;5095436;28;20051;-72
2023/08/20 09:45:47;;;;;;;171.07;162.93;;;26.20;99.90;;;;;;5085823;28;20032;-71
2023/08/20 09:48:21;;;;;;;73.55;69.78;;;26.30;99.90;;;;;;5088382;28;20048;-71
2023/08/20 09:50:54;;;;;;;97.65;93.20;;;26.20;99.90;;;;;;5082422;28;20054;-71
2023/08/20 09:53:32;;;;;;;181.63;173.38;;;26.20;99.90;;;;;;5084219;28;20060;-71
2023/08/20 09:56:21;;;;;;;72.57;68.90;;;26.20;99.90;;;;;;5073220;28;20036;-71
2023/08/20 09:58:49;;;;;;;98.30;93.75;;;26.10;99.90;;;;;;5073891;28;20048;-72
2023/08/20 10:01:15;;;;;;;142.10;135.27;;;26.00;99.90;;;;;;5077547;28;20093;-71
2023/08/20 10:03:42;;;;;;;156.23;148.93;;;25.90;99.90;;;;;;5082771;28;20575;-71
2023/08/20 10:06:09;;;;;;;139.27;132.48;;;25.80;99.90;;;;;;5085209;28;20071;-72
2023/08/20 10:08:36;;;;;;;80.85;76.70;;;25.80;99.90;;;;;;5083300;28;20059;-71
2023/08/20 10:11:02;;;;;;;70.47;66.68;;;25.80;99.90;;;;;;5071868;28;20045;-71
2023/08/20 10:13:27;;;;;;;99.00;94.43;;;25.80;99.90;;;;;;5071223;28;20089;-71
2023/08/20 10:15:55;;;;;;;81.53;77.72;;;25.80;99.90;;;;;;5068402;28;20189;-71
2023/08/20 10:18:22;;;;;;;86.88;82.35;;;25.80;99.90;;;;;;5084194;28;20563;-71
2023/08/20 10:20:50;;;;;;;271.60;259.13;;;25.70;99.90;;;;;;5083769;28;20074;-72
2023/08/20 10:23:22;;;;;;;135.00;128.73;;;25.60;99.90;;;;;;5085577;28;20040;-71
2023/08/20 10:25:48;;;;;;;149.93;143.00;;;25.60;99.90;;;;;;5084957;28;20763;-72
2023/08/20 10:28:26;;;;;;;157.38;149.90;;;25.50;99.90;;;;;;5070429;28;20056;-71
2023/08/20 10:31:06;;;;;;;87.03;82.85;;;25.50;99.90;;;;;;5084880;28;20119;-72
2023/08/20 10:33:34;;;;;;;93.10;88.55;;;25.40;99.90;;;;;;5077513;28;20040;-71
2023/08/20 10:36:22;;;;;;;117.80;112.28;;;25.40;99.90;;;;;;5085972;28;20039;-71
2023/08/20 10:38:50;;;;;;;163.13;155.48;;;25.60;99.90;;;;;;5085499;28;20044;-72
2023/08/20 10:41:16;;;;;;;81.53;77.65;;;25.90;99.90;;;;;;5085548;28;20043;-72
2023/08/20 10:43:49;;;;;;;166.88;159.15;;;26.20;99.90;;;;;;5084423;28;20036;-71
2023/08/20 10:46:23;;;;;;;231.48;221.15;;;26.50;99.90;;;;;;5088776;28;20039;-71
2023/08/20 10:48:52;;;;;;;163.65;156.10;;;26.70;99.90;;;;;;5086746;28;20052;-71
2023/08/20 10:51:34;;;;;;;180.63;172.50;;;26.90;99.90;;;;;;5102216;28;20086;-71
2023/08/20 10:54:06;;;;;;;199.93;190.68;;;27.10;99.90;;;;;;5079269;28;20054;-71
2023/08/20 10:57:07;;;;;;;257.77;245.85;;;27.30;99.90;;;;;;5079504;28;20050;-71
2023/08/20 10:59:34;;;;;;;218.88;209.13;;;27.40;99.90;;;;;;4988958;28;20169;-72
2023/08/20 11:02:00;;;;;;;85.13;80.90;;;27.30;99.90;;;;;;4978902;28;20077;-72
2023/08/20 11:04:28;;;;;;;140.35;133.82;;;27.40;99.90;;;;;;4982522;28;20050;-72
2023/08/20 11:06:56;;;;;;;97.47;92.95;;;27.50;99.90;;;;;;5001101;28;20041;-71
2023/08/20 11:09:27;;;;;;;77.55;73.95;;;27.50;99.90;;;;;;5017000;28;20085;-71
2023/08/20 11:11:53;;;;;;;81.65;77.82;;;27.60;99.90;;;;;;5002135;28;20096;-71
2023/08/20 11:14:20;;;;;;;65.40;61.97;;;27.70;99.90;;;;;;4971068;28;20545;-72
2023/08/20 11:16:48;;;;;;;116.75;111.30;;;27.80;99.90;;;;;;4980528;28;20580;-72
2023/08/20 11:19:14;;;;;;;103.82;98.95;;;28.00;99.90;;;;;;4993280;28;20046;-71
2023/08/20 11:21:42;;;;;;;114.93;109.60;;;27.90;99.90;;;;;;4971550;28;20066;-71
2023/08/20 11:24:08;;;;;;;96.63;92.28;;;27.70;99.90;;;;;;4989971;28;20152;-71
2023/08/20 11:26:35;;;;;;;88.82;84.53;;;27.30;99.90;;;;;;5004379;28;20486;-71
2023/08/20 11:29:05;;;;;;;121.15;115.78;;;27.30;99.90;;;;;;5001920;28;20069;-71
2023/08/20 11:31:31;;;;;;;114.82;109.60;;;27.40;99.50;;;;;;5006970;28;20076;-71
2023/08/20 11:33:57;;;;;;;159.68;152.48;;;27.30;99.40;;;;;;4990760;28;20065;-71
2023/08/20 11:36:23;;;;;;;71.88;68.38;;;27.00;98.80;;;;;;5055530;28;20125;-71
2023/08/20 11:38:51;;;;;;;96.80;92.20;;;26.70;99.90;;;;;;5085189;28;20067;-71
2023/08/20 11:41:18;;;;;;;64.55;61.45;;;26.50;99.90;;;;;;5086803;28;20063;-71
2023/08/20 11:43:43;;;;;;;58.38;55.38;;;26.20;99.90;;;;;;5105134;28;20541;-71
2023/08/20 11:46:14;;;;;;;73.63;70.00;;;25.90;99.90;;;;;;5066621;28;20181;-71
2023/08/20 11:49:05;;;;;;;68.88;65.38;;;25.60;99.90;;;;;;5070420;28;20040;-71
2023/08/20 11:51:45;;;;;;;53.72;50.78;;;25.60;99.90;;;;;;5071453;28;20044;-71
2023/08/20 11:54:13;;;;;;;85.18;81.10;;;25.40;99.90;;;;;;5087397;28;20036;-71
2023/08/20 11:56:45;;;;;;;78.80;75.15;;;25.50;99.90;;;;;;5080409;28;20151;-71
2023/08/20 11:59:11;;;;;;;60.08;57.05;;;25.70;99.90;;;;;;5074343;28;21327;-71
2023/08/20 12:01:37;;;;;;;52.90;50.33;;;25.90;99.90;;;;;;5089459;28;20096;-71
2023/08/20 12:04:07;;;;;;;39.40;37.28;;;26.10;99.90;;;;;;5081549;28;20492;-71